Time;durP1;ratioP1;P1;durP2;ratioP2;P2;SDS_P1;SDS_P2;PMS_P1;PMS_P2;Temp;Humidity;BMP_temperature;BMP_pressure;BME280_temperature;BME280_humidity;BME280_pressure;Samples;Min_cycle;Max_cycle;Signal;HPM_P1;HPM_P2
2021/01/14 00:01:29;;;;;;;6.72;3.10;;;;;;;;;;5089671;28;20064;-73
2021/01/14 00:03:55;;;;;;;7.47;3.13;;;;;;;;;;5078519;28;20131;-72
2021/01/14 00:06:21;;;;;;;12.10;3.33;;;;;;;;;;5083347;28;20044;-73
2021/01/14 00:08:47;;;;;;;8.35;3.22;;;;;;;;;;5088503;28;20062;-73
2021/01/14 00:11:14;;;;;;;6.65;2.90;;;;;;;;;;5078367;28;20051;-73
2021/01/14 00:13:41;;;;;;;9.45;3.30;;;;;;;;;;5079860;28;20036;-73
2021/01/14 00:16:07;;;;;;;6.65;2.78;;;;;;;;;;5077616;28;20475;-73
2021/01/14 00:18:34;;;;;;;7.30;2.60;;;;;;;;;;5083211;28;20085;-72
2021/01/14 00:21:00;;;;;;;7.28;2.45;;;;;;;;;;5079483;28;20064;-72
2021/01/14 00:23:26;;;;;;;10.18;3.08;;;;;;;;;;5082339;28;20115;-73
2021/01/14 00:25:52;;;;;;;8.05;2.72;;;;;;;;;;5078236;28;20452;-72
2021/01/14 00:28:19;;;;;;;6.03;2.60;;;;;;;;;;5092241;28;20486;-72
2021/01/14 00:30:45;;;;;;;8.05;2.60;;;;;;;;;;5076897;28;20032;-72
2021/01/14 00:33:11;;;;;;;6.93;2.40;;;;;;;;;;5080010;28;20424;-71
2021/01/14 00:35:38;;;;;;;6.32;2.53;;;;;;;;;;5082577;28;20055;-72
2021/01/14 00:38:04;;;;;;;6.60;3.00;;;;;;;;;;5078423;28;20038;-72
2021/01/14 00:40:35;;;;;;;7.72;3.30;;;;;;;;;;5076103;28;20088;-72
2021/01/14 00:43:02;;;;;;;6.65;3.03;;;;;;;;;;5075266;28;20065;-72
2021/01/14 00:45:29;;;;;;;7.93;2.58;;;;;;;;;;5078057;28;20067;-72
2021/01/14 00:47:56;;;;;;;5.55;2.40;;;;;;;;;;5078582;28;21816;-73
2021/01/14 00:50:23;;;;;;;5.13;2.35;;;;;;;;;;5079175;28;20060;-73
2021/01/14 00:52:50;;;;;;;6.60;2.72;;;;;;;;;;5077938;28;20489;-72
2021/01/14 00:55:17;;;;;;;6.10;2.42;;;;;;;;;;5080043;28;20887;-73
2021/01/14 00:57:44;;;;;;;7.82;2.40;;;;;;;;;;5081909;28;20040;-72
2021/01/14 01:00:12;;;;;;;5.20;2.85;;;;;;;;;;5078332;28;20040;-72
2021/01/14 01:02:40;;;;;;;5.85;2.25;;;;;;;;;;5081469;28;20036;-72
2021/01/14 01:05:08;;;;;;;5.68;2.05;;;;;;;;;;5081387;28;20182;-72
2021/01/14 01:07:34;;;;;;;5.88;2.10;;;;;;;;;;5081279;28;20043;-73
2021/01/14 01:10:00;;;;;;;4.90;2.17;;;;;;;;;;5078549;28;20101;-72
2021/01/14 01:12:27;;;;;;;7.90;2.85;;;;;;;;;;5079126;28;20067;-71
2021/01/14 01:14:53;;;;;;;3.40;1.90;;;;;;;;;;5081961;28;20038;-71
2021/01/14 01:17:19;;;;;;;4.97;2.22;;;;;;;;;;5081411;28;20032;-72
2021/01/14 01:19:46;;;;;;;5.70;2.00;;;;;;;;;;5080011;28;20044;-72
2021/01/14 01:22:12;;;;;;;10.02;2.45;;;;;;;;;;5080020;28;20494;-72
2021/01/14 01:24:39;;;;;;;5.60;2.15;;;;;;;;;;5077673;28;20036;-72
2021/01/14 01:27:05;;;;;;;6.68;2.58;;;;;;;;;;5080331;28;20059;-72
2021/01/14 01:29:32;;;;;;;6.60;2.80;;;;;;;;;;5078384;28;20048;-72
2021/01/14 01:31:58;;;;;;;4.82;2.10;;;;;;;;;;5079831;28;20367;-73
2021/01/14 01:34:24;;;;;;;3.80;2.00;;;;;;;;;;5078559;28;20036;-72
2021/01/14 01:36:51;;;;;;;6.20;2.08;;;;;;;;;;5079202;28;20211;-71
2021/01/14 01:39:18;;;;;;;6.55;2.58;;;;;;;;;;5082521;28;20040;-73
2021/01/14 01:41:45;;;;;;;5.45;2.40;;;;;;;;;;5080694;28;20054;-71
2021/01/14 01:44:12;;;;;;;4.75;2.78;;;;;;;;;;5080378;28;20033;-72
2021/01/14 01:46:38;;;;;;;4.72;1.85;;;;;;;;;;5080588;28;20044;-71
2021/01/14 01:49:05;;;;;;;5.55;2.28;;;;;;;;;;5077185;28;21067;-72
2021/01/14 01:51:35;;;;;;;3.95;2.10;;;;;;;;;;5078343;28;20044;-72
2021/01/14 01:54:01;;;;;;;5.47;2.33;;;;;;;;;;5080545;28;20047;-72
2021/01/14 01:56:28;;;;;;;9.15;2.70;;;;;;;;;;5079011;28;20044;-73
2021/01/14 01:58:56;;;;;;;4.43;2.00;;;;;;;;;;5079763;28;20035;-72
2021/01/14 02:01:24;;;;;;;5.05;2.20;;;;;;;;;;5088399;28;20089;-73
2021/01/14 02:03:50;;;;;;;7.10;2.10;;;;;;;;;;5080800;28;20032;-72
2021/01/14 02:06:17;;;;;;;5.07;1.77;;;;;;;;;;5081052;28;20158;-72
2021/01/14 02:08:46;;;;;;;4.03;2.00;;;;;;;;;;5082194;28;20101;-72
2021/01/14 02:11:18;;;;;;;6.43;2.38;;;;;;;;;;5080502;28;20688;-73
2021/01/14 02:13:47;;;;;;;2.78;1.52;;;;;;;;;;5085255;28;20333;-71
2021/01/14 02:16:14;;;;;;;5.57;2.05;;;;;;;;;;5078199;28;20048;-71
2021/01/14 02:18:42;;;;;;;3.95;1.73;;;;;;;;;;5081390;28;20131;-71
2021/01/14 02:21:09;;;;;;;4.90;2.10;;;;;;;;;;5083291;28;20478;-72
2021/01/14 02:23:38;;;;;;;3.38;2.15;;;;;;;;;;5078990;28;20036;-73
2021/01/14 02:26:11;;;;;;;4.07;1.80;;;;;;;;;;5084018;28;20036;-71
2021/01/14 02:28:39;;;;;;;6.28;1.90;;;;;;;;;;5081761;28;20040;-72
2021/01/14 02:31:06;;;;;;;5.95;2.20;;;;;;;;;;5085188;28;20056;-72
2021/01/14 02:33:33;;;;;;;5.18;1.77;;;;;;;;;;5083985;28;20127;-71
2021/01/14 02:35:59;;;;;;;4.10;1.95;;;;;;;;;;5085870;28;20055;-71
2021/01/14 02:38:25;;;;;;;5.25;2.08;;;;;;;;;;5086241;28;20063;-71
2021/01/14 02:40:52;;;;;;;3.63;1.80;;;;;;;;;;5080735;28;20102;-71
2021/01/14 02:43:18;;;;;;;3.85;1.65;;;;;;;;;;5083015;28;20135;-72
2021/01/14 02:45:45;;;;;;;4.20;2.05;;;;;;;;;;5081367;28;20028;-72
2021/01/14 02:48:13;;;;;;;3.90;1.70;;;;;;;;;;5080200;28;20036;-71
2021/01/14 02:50:40;;;;;;;5.18;1.70;;;;;;;;;;5084362;28;20028;-71
2021/01/14 02:53:08;;;;;;;4.18;1.88;;;;;;;;;;5084005;28;20204;-71
2021/01/14 02:55:36;;;;;;;4.95;1.98;;;;;;;;;;5091155;28;20040;-71
2021/01/14 02:58:02;;;;;;;3.70;1.55;;;;;;;;;;5084028;28;20344;-71
2021/01/14 03:00:29;;;;;;;4.70;1.85;;;;;;;;;;5082510;28;20032;-72
2021/01/14 03:02:55;;;;;;;4.03;1.92;;;;;;;;;;5084668;28;20036;-71
2021/01/14 03:05:21;;;;;;;4.43;1.77;;;;;;;;;;5085765;28;20051;-73
2021/01/14 03:07:47;;;;;;;5.95;1.90;;;;;;;;;;5085279;28;20830;-71
2021/01/14 03:10:14;;;;;;;5.28;2.38;;;;;;;;;;5080927;28;20036;-72
2021/01/14 03:12:41;;;;;;;2.55;1.60;;;;;;;;;;5082310;28;20119;-72
2021/01/14 03:15:07;;;;;;;2.65;1.65;;;;;;;;;;5079554;28;20047;-71
2021/01/14 03:17:40;;;;;;;5.53;1.85;;;;;;;;;;5077905;28;20047;-71
2021/01/14 03:20:07;;;;;;;3.97;2.08;;;;;;;;;;5080777;28;21470;-71
2021/01/14 03:22:37;;;;;;;3.72;1.85;;;;;;;;;;5082216;28;20028;-71
2021/01/14 03:25:04;;;;;;;4.65;1.90;;;;;;;;;;5081335;28;20104;-71
2021/01/14 03:27:30;;;;;;;3.65;1.70;;;;;;;;;;5079468;28;20503;-71
2021/01/14 03:29:57;;;;;;;4.47;1.88;;;;;;;;;;5079074;28;20791;-72
2021/01/14 03:32:23;;;;;;;2.97;1.63;;;;;;;;;;5075518;28;20142;-71
2021/01/14 03:34:50;;;;;;;3.30;1.48;;;;;;;;;;5076329;28;20044;-71
2021/01/14 03:37:16;;;;;;;4.15;2.03;;;;;;;;;;5078522;28;20116;-71
2021/01/14 03:39:42;;;;;;;3.58;2.10;;;;;;;;;;5080508;28;20123;-71
2021/01/14 03:42:08;;;;;;;3.67;2.10;;;;;;;;;;5082294;28;20116;-72
2021/01/14 03:44:35;;;;;;;3.22;1.60;;;;;;;;;;5079586;28;20047;-72
2021/01/14 03:47:01;;;;;;;3.90;2.22;;;;;;;;;;5083252;28;20124;-72
2021/01/14 03:49:27;;;;;;;2.92;1.63;;;;;;;;;;5092646;28;20044;-71
2021/01/14 03:51:54;;;;;;;5.20;2.03;;;;;;;;;;5082079;28;20032;-71
2021/01/14 03:54:21;;;;;;;4.03;1.60;;;;;;;;;;5083148;28;20035;-70
2021/01/14 03:56:48;;;;;;;5.35;2.10;;;;;;;;;;5082536;28;20845;-73
2021/01/14 03:59:14;;;;;;;5.53;2.13;;;;;;;;;;5079952;28;20036;-72
2021/01/14 04:01:40;;;;;;;4.25;1.60;;;;;;;;;;5080983;28;20040;-72
2021/01/14 04:04:07;;;;;;;4.60;1.80;;;;;;;;;;5079722;28;20463;-72
2021/01/14 04:06:35;;;;;;;4.20;1.90;;;;;;;;;;5082211;28;20071;-72
2021/01/14 04:09:02;;;;;;;4.30;1.73;;;;;;;;;;5081976;28;20051;-72
2021/01/14 04:11:29;;;;;;;3.05;1.73;;;;;;;;;;5080492;28;20084;-71
2021/01/14 04:13:55;;;;;;;4.47;1.60;;;;;;;;;;5079204;28;20036;-72
2021/01/14 04:16:21;;;;;;;4.22;2.00;;;;;;;;;;5081351;28;20459;-72
2021/01/14 04:18:48;;;;;;;4.15;1.73;;;;;;;;;;5081508;28;20059;-72
2021/01/14 04:21:15;;;;;;;3.35;1.65;;;;;;;;;;5082920;28;20094;-72
2021/01/14 04:23:41;;;;;;;4.25;1.80;;;;;;;;;;5080731;28;20040;-72
2021/01/14 04:26:08;;;;;;;3.20;1.55;;;;;;;;;;5080825;28;20040;-72
2021/01/14 04:28:34;;;;;;;3.20;1.60;;;;;;;;;;5080538;28;20039;-70
2021/01/14 04:31:01;;;;;;;3.72;1.70;;;;;;;;;;5080681;28;20110;-72
2021/01/14 04:33:27;;;;;;;4.50;1.80;;;;;;;;;;5079137;28;20037;-72
2021/01/14 04:35:54;;;;;;;5.25;2.10;;;;;;;;;;5077330;28;20036;-72
2021/01/14 04:38:22;;;;;;;3.75;1.60;;;;;;;;;;5079813;28;20252;-72
2021/01/14 04:40:55;;;;;;;3.97;1.75;;;;;;;;;;5078389;28;20036;-72
2021/01/14 04:43:22;;;;;;;4.07;1.92;;;;;;;;;;5079280;28;20048;-72
2021/01/14 04:45:49;;;;;;;3.42;1.70;;;;;;;;;;5081852;28;20040;-72
2021/01/14 04:48:18;;;;;;;2.95;1.85;;;;;;;;;;5081126;28;20040;-72
2021/01/14 04:50:45;;;;;;;6.45;2.00;;;;;;;;;;5080774;28;20463;-72
2021/01/14 04:53:14;;;;;;;5.57;1.80;;;;;;;;;;5084455;28;20044;-72
2021/01/14 04:55:43;;;;;;;4.97;1.77;;;;;;;;;;5081678;28;20040;-72
2021/01/14 04:58:14;;;;;;;3.85;1.77;;;;;;;;;;5079906;28;20132;-72
2021/01/14 05:00:43;;;;;;;3.50;1.75;;;;;;;;;;5079518;28;20036;-72
2021/01/14 05:03:14;;;;;;;3.45;1.70;;;;;;;;;;5078609;28;20139;-70
2021/01/14 05:05:40;;;;;;;3.70;1.80;;;;;;;;;;5078166;28;20476;-72
2021/01/14 05:08:08;;;;;;;3.45;1.70;;;;;;;;;;5078456;28;20040;-72
2021/01/14 05:10:35;;;;;;;3.45;1.98;;;;;;;;;;5078514;28;20048;-73
2021/01/14 05:13:02;;;;;;;2.97;1.80;;;;;;;;;;5076379;28;20044;-72
2021/01/14 05:15:28;;;;;;;2.80;1.58;;;;;;;;;;5078646;28;20139;-72
2021/01/14 05:17:56;;;;;;;3.22;1.70;;;;;;;;;;5078382;28;20491;-71
2021/01/14 05:20:23;;;;;;;3.05;1.48;;;;;;;;;;5075663;28;20387;-71
2021/01/14 05:22:51;;;;;;;2.75;1.60;;;;;;;;;;5087091;28;20060;-72
2021/01/14 05:25:18;;;;;;;3.70;1.80;;;;;;;;;;5077583;28;21574;-72
2021/01/14 05:27:44;;;;;;;3.00;1.73;;;;;;;;;;5078064;28;20043;-72
2021/01/14 05:30:11;;;;;;;3.72;1.67;;;;;;;;;;5079478;28;20142;-72
2021/01/14 05:32:39;;;;;;;3.10;1.85;;;;;;;;;;5079221;28;20056;-72
2021/01/14 05:35:06;;;;;;;5.13;1.88;;;;;;;;;;5087067;28;20036;-73
2021/01/14 05:37:35;;;;;;;4.07;1.75;;;;;;;;;;5082278;28;20040;-72
2021/01/14 05:40:02;;;;;;;3.00;1.95;;;;;;;;;;5078280;28;20040;-72
2021/01/14 05:42:28;;;;;;;4.25;2.10;;;;;;;;;;5080803;28;20146;-73
2021/01/14 05:44:55;;;;;;;2.33;1.52;;;;;;;;;;5078886;28;20721;-72
2021/01/14 05:47:21;;;;;;;3.20;1.63;;;;;;;;;;5077397;28;21629;-72
2021/01/14 05:50:01;;;;;;;1.88;1.40;;;;;;;;;;5081349;28;21186;-72
2021/01/14 05:52:29;;;;;;;2.78;1.60;;;;;;;;;;5081799;28;20428;-72
2021/01/14 05:54:58;;;;;;;5.03;1.70;;;;;;;;;;5083348;28;20427;-72
2021/01/14 05:57:32;;;;;;;3.78;1.80;;;;;;;;;;5083518;28;20078;-72
2021/01/14 06:00:00;;;;;;;3.08;1.80;;;;;;;;;;5083427;28;21469;-72
2021/01/14 06:02:30;;;;;;;1.85;1.50;;;;;;;;;;5083883;28;20073;-72
2021/01/14 06:04:57;;;;;;;2.53;1.90;;;;;;;;;;5077971;28;20390;-72
2021/01/14 06:07:24;;;;;;;2.83;1.80;;;;;;;;;;5080736;28;20068;-72
2021/01/14 06:09:50;;;;;;;2.67;1.65;;;;;;;;;;5092622;28;20392;-72
2021/01/14 06:12:17;;;;;;;3.45;1.70;;;;;;;;;;5082880;28;20170;-72
2021/01/14 06:14:44;;;;;;;2.63;1.90;;;;;;;;;;5084295;28;20071;-72
2021/01/14 06:17:11;;;;;;;3.45;1.55;;;;;;;;;;5065105;28;20047;-72
2021/01/14 06:19:38;;;;;;;6.57;2.35;;;;;;;;;;5081585;28;20028;-72
2021/01/14 06:22:04;;;;;;;4.15;1.90;;;;;;;;;;5079911;28;20044;-71
2021/01/14 06:24:40;;;;;;;2.67;1.73;;;;;;;;;;5082107;28;20066;-72
2021/01/14 06:27:06;;;;;;;6.53;2.10;;;;;;;;;;5087253;28;20147;-73
2021/01/14 06:29:34;;;;;;;6.22;2.35;;;;;;;;;;5084454;28;20039;-72
2021/01/14 06:32:05;;;;;;;3.40;1.90;;;;;;;;;;5087205;28;20107;-72
2021/01/14 06:34:32;;;;;;;5.15;2.22;;;;;;;;;;5086625;28;20051;-72
2021/01/14 06:37:05;;;;;;;3.83;1.88;;;;;;;;;;5086410;28;20055;-71
2021/01/14 06:39:35;;;;;;;3.47;1.90;;;;;;;;;;5083794;28;20055;-71
2021/01/14 06:42:11;;;;;;;3.97;2.20;;;;;;;;;;5081964;28;20562;-71
2021/01/14 06:44:41;;;;;;;3.45;2.03;;;;;;;;;;5083008;28;20085;-72
2021/01/14 06:47:14;;;;;;;4.22;2.35;;;;;;;;;;5084304;28;20055;-73
2021/01/14 06:49:45;;;;;;;4.70;2.13;;;;;;;;;;5079385;28;20126;-72
2021/01/14 06:52:14;;;;;;;4.60;2.45;;;;;;;;;;5084181;28;20456;-71
2021/01/14 06:54:41;;;;;;;2.90;1.98;;;;;;;;;;5083759;28;20051;-73
2021/01/14 06:57:12;;;;;;;4.38;1.67;;;;;;;;;;5085860;28;20081;-72
2021/01/14 06:59:39;;;;;;;6.03;2.20;;;;;;;;;;5081060;28;20051;-72
2021/01/14 07:02:06;;;;;;;5.30;2.03;;;;;;;;;;5074164;28;20032;-74
2021/01/14 07:04:37;;;;;;;3.28;1.77;;;;;;;;;;5074899;28;20079;-73
2021/01/14 07:07:15;;;;;;;4.22;2.15;;;;;;;;;;5077061;28;20044;-74
2021/01/14 07:09:47;;;;;;;6.13;2.05;;;;;;;;;;5080539;28;20561;-73
2021/01/14 07:12:16;;;;;;;5.53;2.20;;;;;;;;;;5076203;28;20052;-73
2021/01/14 07:14:47;;;;;;;3.17;1.75;;;;;;;;;;5083977;28;20032;-73
2021/01/14 07:17:18;;;;;;;3.22;1.80;;;;;;;;;;5077031;28;20093;-73
2021/01/14 07:19:44;;;;;;;3.28;1.73;;;;;;;;;;5077144;28;20036;-73
2021/01/14 07:22:13;;;;;;;3.42;1.70;;;;;;;;;;5081511;28;20039;-73
2021/01/14 07:24:40;;;;;;;4.75;1.95;;;;;;;;;;5078752;28;20235;-73
2021/01/14 07:27:08;;;;;;;4.18;1.90;;;;;;;;;;5079590;28;20071;-74
2021/01/14 07:29:41;;;;;;;3.75;1.85;;;;;;;;;;5095137;28;20035;-73
2021/01/14 07:32:08;;;;;;;4.80;1.67;;;;;;;;;;5087591;28;20165;-75
2021/01/14 07:34:42;;;;;;;10.82;2.17;;;;;;;;;;5080229;28;20045;-73
2021/01/14 07:37:10;;;;;;;11.25;2.22;;;;;;;;;;5079916;28;20043;-73
2021/01/14 07:39:46;;;;;;;10.52;2.65;;;;;;;;;;5075813;28;20036;-73
2021/01/14 07:42:21;;;;;;;7.95;2.20;;;;;;;;;;5084183;28;20032;-73
2021/01/14 07:44:49;;;;;;;4.85;1.60;;;;;;;;;;5081715;28;20039;-73
2021/01/14 07:47:22;;;;;;;4.07;2.30;;;;;;;;;;5079608;28;20161;-73
2021/01/14 07:49:48;;;;;;;3.22;1.90;;;;;;;;;;5081304;28;20789;-71
2021/01/14 07:52:26;;;;;;;9.02;2.33;;;;;;;;;;5060568;28;20055;-71
2021/01/14 07:54:57;;;;;;;4.68;2.25;;;;;;;;;;5094312;28;20040;-71
2021/01/14 07:57:27;;;;;;;6.80;2.10;;;;;;;;;;5082933;28;20082;-78
2021/01/14 07:59:56;;;;;;;6.40;2.15;;;;;;;;;;5080131;28;20114;-74
2021/01/14 08:02:23;;;;;;;6.40;1.85;;;;;;;;;;5083070;28;20065;-74
2021/01/14 08:04:52;;;;;;;7.18;2.03;;;;;;;;;;5073587;28;20475;-74
2021/01/14 08:07:25;;;;;;;4.78;1.75;;;;;;;;;;5080040;28;20120;-73
2021/01/14 08:09:52;;;;;;;6.78;2.10;;;;;;;;;;5081402;28;20044;-74
2021/01/14 08:12:21;;;;;;;7.30;2.05;;;;;;;;;;5078427;28;20077;-73
2021/01/14 08:14:48;;;;;;;7.20;1.98;;;;;;;;;;5089123;28;20625;-73
2021/01/14 08:17:20;;;;;;;4.82;2.25;;;;;;;;;;5077398;28;20044;-73
2021/01/14 08:19:47;;;;;;;2.97;2.00;;;;;;;;;;5081802;28;20126;-73
2021/01/14 08:22:13;;;;;;;6.45;2.05;;;;;;;;;;5080400;28;20464;-73
2021/01/14 08:24:49;;;;;;;5.88;2.22;;;;;;;;;;5079581;28;20149;-73
2021/01/14 08:27:22;;;;;;;7.32;2.53;;;;;;;;;;5081272;28;20044;-72
2021/01/14 08:29:55;;;;;;;7.07;2.00;;;;;;;;;;5080000;28;20739;-74
2021/01/14 08:32:34;;;;;;;6.30;2.60;;;;;;;;;;5078329;28;20048;-74
2021/01/14 08:35:02;;;;;;;5.88;2.13;;;;;;;;;;5081082;28;20172;-73
2021/01/14 08:37:38;;;;;;;5.85;1.98;;;;;;;;;;5079554;28;20044;-73
2021/01/14 08:40:06;;;;;;;8.03;2.50;;;;;;;;;;5080088;28;20399;-74
2021/01/14 08:42:34;;;;;;;6.30;2.30;;;;;;;;;;5095017;28;20055;-74
2021/01/14 08:45:02;;;;;;;3.35;2.15;;;;;;;;;;5081801;28;20044;-73
2021/01/14 08:47:47;;;;;;;5.00;2.35;;;;;;;;;;5080903;28;20032;-73
2021/01/14 08:50:13;;;;;;;5.78;2.22;;;;;;;;;;5080935;28;20376;-73
2021/01/14 08:52:45;;;;;;;4.63;2.22;;;;;;;;;;5082331;28;20040;-74
2021/01/14 08:55:13;;;;;;;3.30;1.95;;;;;;;;;;5074862;28;20178;-74
2021/01/14 08:57:53;;;;;;;7.18;2.30;;;;;;;;;;5077416;28;20076;-74
2021/01/14 09:00:20;;;;;;;7.40;2.53;;;;;;;;;;5080235;28;20098;-74
2021/01/14 09:02:46;;;;;;;5.22;2.13;;;;;;;;;;5076933;28;20041;-74
2021/01/14 09:05:13;;;;;;;5.47;1.88;;;;;;;;;;5080031;28;20043;-73
2021/01/14 09:07:39;;;;;;;4.38;2.10;;;;;;;;;;5077264;28;20108;-73
2021/01/14 09:10:08;;;;;;;6.38;2.55;;;;;;;;;;5060757;28;20039;-74
2021/01/14 09:12:35;;;;;;;6.00;2.05;;;;;;;;;;5075079;28;20036;-74
2021/01/14 09:15:03;;;;;;;3.38;1.90;;;;;;;;;;5092003;28;20036;-73
2021/01/14 09:17:31;;;;;;;5.88;2.17;;;;;;;;;;5073623;28;21666;-73
2021/01/14 09:19:57;;;;;;;6.18;2.10;;;;;;;;;;5083785;28;20238;-73
2021/01/14 09:22:25;;;;;;;3.88;1.95;;;;;;;;;;5079683;28;20035;-73
2021/01/14 09:24:52;;;;;;;6.40;2.30;;;;;;;;;;5076966;28;20040;-73
2021/01/14 09:27:18;;;;;;;4.60;1.88;;;;;;;;;;5087008;28;20040;-74
2021/01/14 09:29:45;;;;;;;3.88;2.25;;;;;;;;;;5084178;28;20513;-73
2021/01/14 09:32:13;;;;;;;8.10;2.20;;;;;;;;;;5085430;28;20129;-74
2021/01/14 09:34:40;;;;;;;4.45;2.20;;;;;;;;;;5083456;28;20044;-77
2021/01/14 09:37:17;;;;;;;5.93;2.40;;;;;;;;;;5068152;28;20036;-79
2021/01/14 09:39:45;;;;;;;4.20;2.47;;;;;;;;;;5082310;28;20047;-75
2021/01/14 09:42:13;;;;;;;3.70;2.30;;;;;;;;;;5081812;28;20032;-75
2021/01/14 09:44:40;;;;;;;5.90;2.70;;;;;;;;;;5082091;28;20063;-75
2021/01/14 09:47:08;;;;;;;5.20;2.35;;;;;;;;;;5082595;28;20399;-75
2021/01/14 09:49:34;;;;;;;4.93;2.17;;;;;;;;;;5080763;28;20066;-75
2021/01/14 09:52:01;;;;;;;3.17;2.00;;;;;;;;;;5083591;28;20485;-75
2021/01/14 09:54:28;;;;;;;3.53;2.00;;;;;;;;;;5080930;28;20119;-75
2021/01/14 09:56:55;;;;;;;4.75;2.47;;;;;;;;;;5083853;28;20117;-74
2021/01/14 09:59:35;;;;;;;3.70;2.10;;;;;;;;;;5084213;28;20039;-76
2021/01/14 10:02:24;;;;;;;3.97;2.30;;;;;;;;;;5082447;28;20044;-76
2021/01/14 10:05:00;;;;;;;4.82;2.13;;;;;;;;;;5077488;28;20059;-76
2021/01/14 10:07:27;;;;;;;4.07;2.20;;;;;;;;;;5080011;28;20563;-76
2021/01/14 10:09:54;;;;;;;4.50;2.45;;;;;;;;;;5081013;28;20471;-76
2021/01/14 10:12:20;;;;;;;5.78;2.90;;;;;;;;;;5083898;28;20044;-76
2021/01/14 10:14:47;;;;;;;3.85;2.08;;;;;;;;;;5082710;28;20044;-74
2021/01/14 10:17:15;;;;;;;7.95;2.30;;;;;;;;;;5080075;28;20040;-76
2021/01/14 10:19:47;;;;;;;4.35;2.40;;;;;;;;;;5075408;28;20175;-75
2021/01/14 10:22:14;;;;;;;4.47;2.28;;;;;;;;;;5079698;28;20056;-75
2021/01/14 10:24:41;;;;;;;4.40;2.03;;;;;;;;;;5080722;28;20044;-75
2021/01/14 10:27:15;;;;;;;5.30;2.20;;;;;;;;;;5080278;28;20047;-75
2021/01/14 10:29:42;;;;;;;3.33;2.13;;;;;;;;;;5100819;28;20043;-76
2021/01/14 10:32:10;;;;;;;4.30;2.40;;;;;;;;;;5093338;28;20388;-76
2021/01/14 10:34:38;;;;;;;4.10;1.85;;;;;;;;;;5080820;28;20055;-76
2021/01/14 10:37:04;;;;;;;5.65;2.83;;;;;;;;;;5085183;28;20032;-77
2021/01/14 10:39:39;;;;;;;3.40;2.03;;;;;;;;;;5064705;28;20123;-75
2021/01/14 10:42:24;;;;;;;3.30;2.03;;;;;;;;;;5093424;28;20062;-77
2021/01/14 10:44:54;;;;;;;4.18;1.85;;;;;;;;;;5081415;28;20044;-77
2021/01/14 10:47:22;;;;;;;4.35;1.95;;;;;;;;;;5082236;28;20033;-76
2021/01/14 10:49:49;;;;;;;3.47;2.10;;;;;;;;;;5074273;28;20036;-76
2021/01/14 10:52:15;;;;;;;3.72;2.08;;;;;;;;;;5091675;28;20048;-75
2021/01/14 10:54:43;;;;;;;5.43;2.38;;;;;;;;;;5079754;28;20047;-75
2021/01/14 10:57:09;;;;;;;3.15;1.95;;;;;;;;;;5085416;28;20035;-77
2021/01/14 10:59:36;;;;;;;3.05;1.90;;;;;;;;;;5078531;28;20040;-75
2021/01/14 11:02:03;;;;;;;4.95;2.00;;;;;;;;;;5083941;28;20031;-76
2021/01/14 11:04:29;;;;;;;3.35;2.08;;;;;;;;;;5091684;28;20048;-76
2021/01/14 11:06:55;;;;;;;3.53;1.73;;;;;;;;;;5081913;28;20044;-77
2021/01/14 11:09:22;;;;;;;4.00;2.00;;;;;;;;;;5084866;28;20395;-76
2021/01/14 11:11:48;;;;;;;5.70;2.40;;;;;;;;;;5084757;28;20047;-77
2021/01/14 11:14:16;;;;;;;5.40;2.80;;;;;;;;;;5074025;28;20043;-78
2021/01/14 11:16:42;;;;;;;14.48;4.82;;;;;;;;;;5068875;28;20356;-74
2021/01/14 11:19:10;;;;;;;30.80;10.07;;;;;;;;;;5082699;28;20047;-74
2021/01/14 11:21:37;;;;;;;25.80;7.38;;;;;;;;;;5082126;28;20093;-76
2021/01/14 11:24:06;;;;;;;25.60;5.95;;;;;;;;;;5075465;28;20087;-74
2021/01/14 11:26:32;;;;;;;16.65;5.18;;;;;;;;;;5077151;28;20071;-73
2021/01/14 11:28:59;;;;;;;14.18;4.55;;;;;;;;;;5083318;28;20044;-74
2021/01/14 11:31:27;;;;;;;12.43;4.50;;;;;;;;;;5076504;28;20159;-74
2021/01/14 11:33:53;;;;;;;12.60;4.18;;;;;;;;;;5092280;28;20068;-74
2021/01/14 11:36:20;;;;;;;11.63;4.03;;;;;;;;;;5093286;28;20080;-74
2021/01/14 11:38:49;;;;;;;9.50;3.50;;;;;;;;;;5079513;28;20041;-76
2021/01/14 11:41:17;;;;;;;11.13;3.70;;;;;;;;;;5081520;28;20047;-73
2021/01/14 11:43:44;;;;;;;8.75;3.20;;;;;;;;;;5079924;28;20043;-75
2021/01/14 11:46:10;;;;;;;12.40;3.58;;;;;;;;;;5080378;28;20102;-75
2021/01/14 11:48:36;;;;;;;11.75;3.75;;;;;;;;;;5077304;28;20040;-72
2021/01/14 11:51:03;;;;;;;9.05;3.65;;;;;;;;;;5080798;28;20048;-72
2021/01/14 11:53:29;;;;;;;12.95;4.00;;;;;;;;;;5078583;28;20039;-71
2021/01/14 11:55:57;;;;;;;8.43;3.50;;;;;;;;;;5074097;28;20033;-72
2021/01/14 11:58:24;;;;;;;14.52;4.00;;;;;;;;;;5075699;28;20039;-73
2021/01/14 12:00:50;;;;;;;11.65;3.67;;;;;;;;;;5082220;28;20040;-72
2021/01/14 12:03:16;;;;;;;7.28;3.38;;;;;;;;;;5080189;28;20097;-72
2021/01/14 12:05:43;;;;;;;14.73;4.25;;;;;;;;;;5078022;28;20404;-77
2021/01/14 12:08:09;;;;;;;12.77;3.67;;;;;;;;;;5082762;28;20123;-71
2021/01/14 12:10:35;;;;;;;11.13;3.67;;;;;;;;;;5078258;28;20054;-73
2021/01/14 12:13:02;;;;;;;10.93;3.28;;;;;;;;;;5083309;28;20051;-76
2021/01/14 12:15:28;;;;;;;9.10;3.88;;;;;;;;;;5082629;28;20485;-72
2021/01/14 12:17:55;;;;;;;16.90;3.80;;;;;;;;;;5075508;28;20043;-75
2021/01/14 12:20:21;;;;;;;9.00;3.38;;;;;;;;;;5077494;28;20040;-72
2021/01/14 12:22:48;;;;;;;12.20;3.38;;;;;;;;;;5064087;28;20111;-73
2021/01/14 12:25:14;;;;;;;12.48;4.07;;;;;;;;;;5094539;28;21573;-74
2021/01/14 12:27:41;;;;;;;10.68;3.25;;;;;;;;;;5077950;28;20067;-74
2021/01/14 12:30:09;;;;;;;13.90;3.17;;;;;;;;;;5078874;28;20093;-74
2021/01/14 12:32:36;;;;;;;7.00;2.85;;;;;;;;;;5082823;28;20044;-74
2021/01/14 12:35:03;;;;;;;8.93;2.88;;;;;;;;;;5083302;28;20044;-73
2021/01/14 12:37:34;;;;;;;7.88;2.80;;;;;;;;;;5082888;28;20040;-74
2021/01/14 12:40:01;;;;;;;8.90;3.50;;;;;;;;;;5079956;28;20032;-74
2021/01/14 12:42:27;;;;;;;10.48;3.08;;;;;;;;;;5081770;28;20419;-74
2021/01/14 12:44:54;;;;;;;6.75;2.90;;;;;;;;;;5079926;28;20131;-73
2021/01/14 12:47:20;;;;;;;8.38;3.17;;;;;;;;;;5090895;28;20118;-73
2021/01/14 12:49:46;;;;;;;6.95;2.97;;;;;;;;;;5082591;28;20040;-73
2021/01/14 12:52:13;;;;;;;6.80;2.80;;;;;;;;;;5082807;28;20051;-73
2021/01/14 12:54:39;;;;;;;5.60;2.97;;;;;;;;;;5087511;28;20041;-75
2021/01/14 12:57:06;;;;;;;8.57;3.47;;;;;;;;;;5081102;28;20476;-74
2021/01/14 12:59:32;;;;;;;8.82;2.70;;;;;;;;;;5080478;28;20485;-74
2021/01/14 13:01:58;;;;;;;5.90;3.10;;;;;;;;;;5076075;28;20040;-76
2021/01/14 13:04:25;;;;;;;8.88;2.60;;;;;;;;;;5075123;28;20179;-74
2021/01/14 13:06:51;;;;;;;9.02;2.50;;;;;;;;;;5078712;28;20399;-75
2021/01/14 13:09:19;;;;;;;7.95;2.50;;;;;;;;;;5079274;28;20039;-74
2021/01/14 13:11:45;;;;;;;5.68;2.95;;;;;;;;;;5079134;28;20608;-75
2021/01/14 13:14:11;;;;;;;10.55;2.80;;;;;;;;;;5082641;28;20043;-71
2021/01/14 13:16:39;;;;;;;8.07;2.92;;;;;;;;;;5082671;28;20040;-73
2021/01/14 13:19:06;;;;;;;9.07;3.35;;;;;;;;;;5081878;28;20047;-72
2021/01/14 13:21:37;;;;;;;11.35;2.50;;;;;;;;;;5079527;28;20074;-72
2021/01/14 13:24:04;;;;;;;17.30;3.13;;;;;;;;;;5080746;28;20043;-73
2021/01/14 13:26:31;;;;;;;6.45;2.45;;;;;;;;;;5079174;28;20040;-72
2021/01/14 13:28:57;;;;;;;8.50;2.72;;;;;;;;;;5079071;28;20063;-72
2021/01/14 13:31:24;;;;;;;6.85;2.95;;;;;;;;;;5080810;28;20868;-73
2021/01/14 13:33:51;;;;;;;8.15;2.90;;;;;;;;;;5081102;28;20410;-74
2021/01/14 13:36:17;;;;;;;6.82;2.50;;;;;;;;;;5079834;28;20040;-74
2021/01/14 13:38:44;;;;;;;13.00;2.83;;;;;;;;;;5088428;28;20055;-74
2021/01/14 13:41:11;;;;;;;7.57;2.90;;;;;;;;;;5079825;28;20044;-74
2021/01/14 13:43:38;;;;;;;7.38;2.60;;;;;;;;;;5089294;28;20055;-74
2021/01/14 13:46:04;;;;;;;4.07;2.40;;;;;;;;;;5080174;28;21466;-75
2021/01/14 13:48:31;;;;;;;8.00;2.55;;;;;;;;;;5077806;28;20044;-73
2021/01/14 13:50:57;;;;;;;7.93;2.72;;;;;;;;;;5077293;28;20036;-73
2021/01/14 13:53:24;;;;;;;5.28;2.22;;;;;;;;;;5078585;28;20045;-73
2021/01/14 13:55:50;;;;;;;6.07;2.42;;;;;;;;;;5079119;28;20112;-73
2021/01/14 13:58:16;;;;;;;6.13;2.40;;;;;;;;;;5078781;28;20081;-75
2021/01/14 14:00:49;;;;;;;5.53;2.40;;;;;;;;;;5079300;28;20413;-74
2021/01/14 14:03:15;;;;;;;6.30;2.40;;;;;;;;;;5081119;28;20036;-74
2021/01/14 14:05:42;;;;;;;6.10;2.28;;;;;;;;;;5072614;28;20135;-74
2021/01/14 14:08:09;;;;;;;6.18;2.50;;;;;;;;;;5077616;28;20044;-74
2021/01/14 14:10:35;;;;;;;8.02;2.20;;;;;;;;;;5082783;28;20062;-75
2021/01/14 14:13:02;;;;;;;7.50;2.35;;;;;;;;;;5084271;28;20586;-73
2021/01/14 14:15:28;;;;;;;8.07;2.58;;;;;;;;;;5080969;28;20044;-71
2021/01/14 14:17:55;;;;;;;8.30;2.83;;;;;;;;;;5081022;28;20131;-72
2021/01/14 14:20:21;;;;;;;4.85;2.33;;;;;;;;;;5092341;28;20109;-72
2021/01/14 14:22:48;;;;;;;8.68;2.40;;;;;;;;;;5083259;28;20044;-72
2021/01/14 14:25:14;;;;;;;5.75;2.22;;;;;;;;;;5081811;28;20036;-70
2021/01/14 14:27:41;;;;;;;5.72;2.35;;;;;;;;;;5085675;28;20040;-71
2021/01/14 14:30:08;;;;;;;8.40;2.90;;;;;;;;;;5087749;28;20115;-71
2021/01/14 14:32:35;;;;;;;7.70;2.58;;;;;;;;;;5081653;28;20055;-71
2021/01/14 14:35:01;;;;;;;7.32;2.33;;;;;;;;;;5081426;28;20471;-71
2021/01/14 14:37:28;;;;;;;6.22;3.13;;;;;;;;;;5090218;28;20540;-70
2021/01/14 14:39:54;;;;;;;8.60;2.58;;;;;;;;;;5080166;28;20448;-71
2021/01/14 14:42:20;;;;;;;7.60;2.63;;;;;;;;;;5083940;28;20704;-73
2021/01/14 14:44:47;;;;;;;7.60;2.40;;;;;;;;;;5082320;28;20093;-73